»·PEaware :: UAL423 KBZN-KGEG

UAL423 :: KBZN-KGEG

FLIGHT INFORMATION

Flight Status: Arrived
Operator:
United Airlines
More flights by this operator :: More flights under this callsign
Pilot: Pratham R. (19019)
Aircraft: AIRBUS A320
(A320)
More flights by this aircraft type
Origin: KBZN Gallatin
United States
Destination: KGEG Spokane Intl
United States
More flights between these airports :: More routes between these airports
Route: +TEERX4 HIA MLP HILIE2
File this flight plan on PilotEdge
Remarks: RMK / SIMBRIEF
Altitude:
(Current/Filed)
36,000ft
Speed:
(Current/Filed)
448kts
Departed: 09-Apr-20 05:27 PM
Arrived: 09-Apr-20 06:38 PM
Distance/Time
Traveled:
285nm/1:11
Distance/Time
To Go:
Arrived

Flight Plot

Page will automatically refresh every two minutes.

Flight plan parsing failed; only flown route is shown


Map Options




Map Legend


Flown Route
Filed Route
Departure Airport
Arrival Airport
Navaid (VOR, NDB)
Fix

Horizontal Profiles

Position Reports

Time Latitude Longitude Heading Altitude Ground
Speed
09-Apr-20 16:58 45.777959 -111.159558 261 4459ft 0kts
09-Apr-20 16:59 45.777959 -111.159558 261 4459ft 0kts
09-Apr-20 17:00 45.777959 -111.159558 261 4459ft 0kts
09-Apr-20 17:01 45.777959 -111.159558 261 4459ft 0kts
09-Apr-20 17:02 45.777959 -111.159558 261 4459ft 0kts
09-Apr-20 17:03 45.777959 -111.159558 261 4459ft 0kts
09-Apr-20 17:04 45.777959 -111.159558 261 4459ft 0kts
09-Apr-20 17:05 45.777959 -111.159558 261 4459ft 0kts
09-Apr-20 17:06 45.777959 -111.159558 261 4459ft 0kts
09-Apr-20 17:07 45.777959 -111.159558 261 4459ft 0kts
09-Apr-20 17:08 45.777959 -111.159558 261 4459ft 0kts
09-Apr-20 17:09 45.777959 -111.159558 261 4459ft 0kts
09-Apr-20 17:10 45.777959 -111.159558 261 4459ft 0kts
09-Apr-20 17:11 45.777959 -111.159558 261 4459ft 0kts
09-Apr-20 17:12 45.777959 -111.159558 261 4459ft 0kts
09-Apr-20 17:13 45.777959 -111.159558 261 4459ft 0kts
09-Apr-20 17:14 45.777959 -111.159558 261 4459ft 0kts
09-Apr-20 17:15 45.777959 -111.159558 261 4459ft 0kts
09-Apr-20 17:16 45.777959 -111.159558 261 4459ft 0kts
09-Apr-20 17:17 45.777998 -111.159199 261 4459ft 0kts
09-Apr-20 17:18 45.778362 -111.158789 169 4458ft 2kts
09-Apr-20 17:19 45.778583 -111.158981 132 4458ft 0kts
09-Apr-20 17:20 45.778583 -111.158981 132 4458ft 0kts
09-Apr-20 17:21 45.778581 -111.158978 132 4458ft 0kts
09-Apr-20 17:22 45.778746 -111.157669 325 4457ft 11kts
09-Apr-20 17:23 45.782749 -111.163217 316 4449ft 20kts
09-Apr-20 17:24 45.786357 -111.168200 332 4439ft 11kts
09-Apr-20 17:25 45.787589 -111.165861 133 4437ft 4kts
09-Apr-20 17:26 45.766285 -111.136562 137 5235ft 187kts
09-Apr-20 17:27 45.721489 -111.164386 235 7641ft 251kts
09-Apr-20 17:28 45.703786 -111.265968 281 10557ft 295kts
09-Apr-20 17:29 45.719003 -111.391164 280 13105ft 339kts
09-Apr-20 17:30 45.733438 -111.524028 280 15946ft 347kts
09-Apr-20 17:31 45.749618 -111.658613 287 18306ft 364kts
09-Apr-20 17:32 45.780867 -111.797183 288 20847ft 371kts
09-Apr-20 17:33 45.811225 -111.937110 288 22885ft 383kts
09-Apr-20 17:34 45.842973 -112.082785 289 24774ft 394kts
09-Apr-20 17:35 45.886959 -112.221270 306 26437ft 400kts
09-Apr-20 17:36 45.949462 -112.349743 306 27984ft 408kts
09-Apr-20 17:37 46.013413 -112.481960 306 29375ft 416kts
09-Apr-20 17:38 46.063310 -112.585548 306 30349ft 422kts
09-Apr-20 17:39 46.110481 -112.683829 305 31192ft 427kts
09-Apr-20 17:40 46.183968 -112.837652 306 32687ft 427kts
09-Apr-20 17:41 46.260692 -112.999131 305 34063ft 428kts
09-Apr-20 17:42 46.334775 -113.155941 305 35375ft 426kts
09-Apr-20 17:43 46.405249 -113.305933 305 36081ft 423kts
09-Apr-20 17:44 46.470758 -113.446061 305 36055ft 424kts
09-Apr-20 17:45 46.536456 -113.587310 305 36050ft 424kts
09-Apr-20 17:46 46.600703 -113.726142 305 36051ft 424kts
09-Apr-20 17:47 46.666069 -113.868107 305 36053ft 424kts
09-Apr-20 17:48 46.730379 -114.008489 305 36050ft 424kts
09-Apr-20 17:49 46.795317 -114.150958 305 36048ft 424kts
09-Apr-20 17:50 46.860102 -114.293825 305 36048ft 424kts
09-Apr-20 17:51 46.924826 -114.437308 305 36073ft 422kts
09-Apr-20 17:52 46.988310 -114.578796 304 36102ft 414kts
09-Apr-20 17:53 47.049403 -114.715669 303 36083ft 403kts
09-Apr-20 17:54 47.108205 -114.848003 303 36006ft 397kts
09-Apr-20 17:55 47.169002 -114.985473 303 35999ft 396kts
09-Apr-20 17:56 47.228583 -115.120866 303 35941ft 398kts
09-Apr-20 17:57 47.288044 -115.256676 303 33569ft 399kts
09-Apr-20 17:58 47.348171 -115.394646 303 31553ft 417kts
09-Apr-20 17:59 47.409160 -115.535402 302 29639ft 405kts
09-Apr-20 18:00 47.457783 -115.675738 283 27555ft 393kts
09-Apr-20 18:01 47.468779 -115.836117 276 25359ft 383kts
09-Apr-20 18:02 47.478117 -115.990126 276 23210ft 371kts
09-Apr-20 18:03 47.486993 -116.139137 276 21086ft 360kts
09-Apr-20 18:04 47.495450 -116.284203 276 18990ft 348kts
09-Apr-20 18:05 47.503508 -116.425457 276 16924ft 338kts
09-Apr-20 18:06 47.511163 -116.562588 276 14897ft 328kts
09-Apr-20 18:07 47.518397 -116.694924 275 13098ft 328kts
09-Apr-20 18:08 47.526140 -116.832053 281 13032ft 336kts
09-Apr-20 18:09 47.591684 -116.917782 335 11659ft 321kts
09-Apr-20 18:11 47.667611 -116.962948 335 10309ft 283kts
09-Apr-20 18:12 47.737857 -117.005620 335 9188ft 252kts
09-Apr-20 18:13 47.770932 -117.083478 285 8174ft 231kts
09-Apr-20 18:14 47.786856 -117.176099 285 7120ft 230kts
09-Apr-20 18:15 47.785657 -117.268855 256 6228ft 220kts
09-Apr-20 18:16 47.752484 -117.336168 225 5724ft 197kts
09-Apr-20 18:17 47.715514 -117.390914 227 4772ft 177kts
09-Apr-20 18:18 47.682326 -117.440901 227 3757ft 153kts
09-Apr-20 18:19 47.654314 -117.482854 224 2979ft 135kts
09-Apr-20 18:20 47.627347 -117.523988 227 2351ft 124kts
09-Apr-20 18:21 47.598444 -117.569204 229 4313ft 195kts
09-Apr-20 18:22 47.557699 -117.630919 227 4237ft 206kts
09-Apr-20 18:23 47.512419 -117.682958 219 4192ft 207kts
09-Apr-20 18:24 47.516682 -117.751549 342 4962ft 222kts
09-Apr-20 18:25 47.566650 -117.705476 45 5037ft 227kts
09-Apr-20 18:26 47.609196 -117.636233 45 5039ft 228kts
09-Apr-20 18:27 47.651853 -117.566950 44 5038ft 226kts
09-Apr-20 18:28 47.697049 -117.503795 40 5034ft 221kts
09-Apr-20 18:29 47.742014 -117.441778 40 5030ft 220kts
09-Apr-20 18:29 47.779500 -117.390103 40 5028ft 221kts
09-Apr-20 18:31 47.832069 -117.317628 42 5028ft 223kts
09-Apr-20 18:32 47.816430 -117.247436 179 5029ft 222kts
09-Apr-20 18:32 47.779506 -117.291989 232 5028ft 215kts
09-Apr-20 18:33 47.739944 -117.355126 226 5029ft 197kts
09-Apr-20 18:34 47.702237 -117.411314 226 4368ft 180kts
09-Apr-20 18:35 47.669173 -117.460180 227 3430ft 146kts
09-Apr-20 18:36 47.642109 -117.501488 230 2664ft 137kts
09-Apr-20 18:37 47.620914 -117.533852 228 2364ft 25kts
09-Apr-20 18:38 47.619939 -117.537876 256 2368ft 4kts
09-Apr-20 18:39 47.620202 -117.538655 4 2368ft 2kts
09-Apr-20 18:40 47.623095 -117.535447 325 2363ft 10kts
09-Apr-20 18:41 47.622844 -117.538998 293 2366ft 6kts
09-Apr-20 18:42 47.623330 -117.539263 3 2367ft 0kts
09-Apr-20 18:43 47.623330 -117.539263 3 2367ft 0kts
09-Apr-20 18:44 47.623330 -117.539263 3 2367ft 0kts
09-Apr-20 18:45 47.623330 -117.539263 3 2367ft 0kts
09-Apr-20 18:46 47.623330 -117.539263 3 2367ft 0kts

Navigation Log

Ident Type
Flight plan parsing failed, navigation log unavailable